Terminal Aerodrome Forecast
Issued by NWS Wilmington, NC

Home | Current Version | Previous Version | Text Only | Print | Product List | Glossary On
Versions: 1 2 3 4 5 6 7 8 9 10 11 12 13 14 15 16 17
000
FTUS42 KILM 181931 AAA
TAFILM
TAF AMD
KILM 181931Z 1820/1918 24009KT P6SM TS SCT040CB
     FM182010 21006KT P6SM SCT040 SCT250
     FM190600 21006KT P6SM BKN250
     FM191500 24006KT P6SM VCTS SCT030CB BKN250=

USA.gov is the U.S. government's official web portal to all federal, state and local government web resources and services.